LFLBLIMW

Guest
Details From LFLB - Aix-Les-Bains
To LIMW - AOSTA
Flight Number -
Tags generated
Created
Modified
Stats Distance 63 nm / 117 km
Max Altitude 6,400 ft / 1,951 m
Waypoints 3
Social Downloads 1
Likes 0
Share VATSIM

Download

Looking for another format? Having issues loading an existing format? Contact us
Advertisement - Login to hide

Notes

Basic altitude profile: - Ascent Rate: 2500ft/min - Ascent Speed: 250kts - Cruise Altitude: 35000ft - Cruise Speed: 420kts - Descent Rate: 1500ft/min - Descent Speed: 250kts Options: - Use NATs: yes - Use PACOTS: yes - Use low airways: yes - Use high airways: yes

Route

LFLB ROCCA LIMW

ID Type Via Altitude Latitude Longitude Leg Dist Tot Dist Heading (true) Name
O LFLB APT - 0 ft / 0 m 45.63623˚ 5.88090˚ - 0 nm - Aix-Les-Bains
ROCCA FIX - 6,400 ft / 1,951 m 45.74528˚ 6.64556˚ 32 nm 32 nm 78° / 79° -
O LIMW APT - 0 ft / 0 m 45.73857˚ 7.36789˚ 30 nm 63 nm 91° / 91° AOSTA

Altitude Profile

Advertisement - Login to hide

LFLB

Details ICAO LFLB (CMF)
Name Aix-Les-Bains
Region France
Timezone Europe/Paris (UTC+2.0)
Stats Elevation 779 ft / 237 m (AMSL)
Location 45.636234° 5.880898°
Runways 2
Magnetic Variation 1.744° E

METAR

LFLB 271800Z AUTO 09005KT 060V120 9999 FEW052/// BKN120/// BKN140/// ///CB 17/15 Q1017 TEMPO 4500 SHRA BECMG 34012KT

Decode

TAF

TAF AMD LFLB 271358Z 2713/2812 34012KT 9999 SCT055TCU TEMPO 2715/2720 4500 SHRA FEW050CB BKN055TCU PROB40 TEMPO 2715/2719 VRB25G40KT 2900 TSRA BKN030CB PROB30 TEMPO 2715/2718 VRB25G40KT 1400 TSGR OVC030CB BECMG 2721/2723 VRB02KT CAVOK BECMG 2810/2812 SCT055TCU

Decode

Departure Runways

ID Width Length Bearing (true) Bearing (mag) Surface Threshold Offset Overrun Length
18 148 ft / 45 m 5,452 ft / 1,662 m 176.72° 174.98° Asphalt 26 ft / 8 m 774 ft / 236 m
18L 197 ft / 60 m 2,309 ft / 704 m 176.70° 174.96° Grass 0 ft / 0 m 0 ft / 0 m
36 148 ft / 45 m 5,452 ft / 1,662 m 356.72° 354.98° Asphalt 23 ft / 7 m 456 ft / 139 m
36R 197 ft / 60 m 2,309 ft / 704 m 356.70° 354.96° Grass 315 ft / 96 m 0 ft / 0 m

LIMW

Details ICAO LIMW (AOT)
Name AOSTA
Region Italy
Timezone Europe/Rome (UTC+2.0)
Stats Elevation 1,791 ft / 546 m (AMSL)
Location 45.738574° 7.367893°
Runways 1
Magnetic Variation 2.107° E

METAR

LIMW 271750Z AUTO 26004KT 9999 FEW140 SCT160 21/16 Q1018

Decode

TAF

Not found

Destination Runways

ID Width Length Bearing (true) Bearing (mag) Surface Threshold Offset Overrun Length
09 98 ft / 30 m 5,254 ft / 1,601 m 84.73° 82.62° Asphalt 213 ft / 65 m 0 ft / 0 m
27 98 ft / 30 m 5,254 ft / 1,601 m 264.75° 262.64° Asphalt 115 ft / 35 m 328 ft / 100 m

Approach Navaids

Runway Type Ident Frequency Range Bearing (true) Bearing (mag) Slope Elevation
27 Localiser IAOS 109.75 MHz 20 nm / 37 km 264.70° 262.59° - 1,797 ft / 548 m (AMSL)
27 Glidescope IAOS 109.75 MHz 10 nm / 19 km 264.70° 262.59° 5.00° 1,797 ft / 548 m (AMSL)
27 DME IAOS 109.75 MHz 25 nm / 46 km - - - 1,797 ft / 548 m (AMSL)

Popular Alternatives